createdAt,value
2022-12-18T00:00:00.797Z,0.045
2022-12-18T00:01:00.718Z,0.045
2022-12-18T00:02:00.841Z,0.045
2022-12-18T00:03:00.909Z,0.045
2022-12-18T00:04:00.886Z,0.045
2022-12-18T00:05:00.841Z,0.045
2022-12-18T00:06:00.815Z,0.045
2022-12-18T00:07:00.755Z,0.045
2022-12-18T00:08:00.725Z,0.045
2022-12-18T00:09:00.695Z,0.045
2022-12-18T00:10:00.745Z,0.045
2022-12-18T00:11:00.917Z,0.045
2022-12-18T00:13:02.649Z,0.045
2022-12-18T00:14:00.754Z,0.045
2022-12-18T00:15:00.684Z,0.045
2022-12-18T00:16:00.790Z,0.045
2022-12-18T00:17:00.859Z,0.045
2022-12-18T00:18:00.714Z,0.045
2022-12-18T00:19:00.716Z,0.045
2022-12-18T00:20:00.778Z,0.045
2022-12-18T00:21:00.808Z,0.045
2022-12-18T00:22:00.700Z,0.045
2022-12-18T00:23:00.978Z,0.045
2022-12-18T00:24:00.773Z,0.045
2022-12-18T00:25:00.748Z,0.045
2022-12-18T00:26:00.769Z,0.045
2022-12-18T00:27:00.881Z,0.045
2022-12-18T00:28:00.717Z,0.045
2022-12-18T00:29:00.865Z,0.045
2022-12-18T00:30:00.713Z,0.045
2022-12-18T00:31:00.721Z,0.045
2022-12-18T00:32:00.806Z,0.045
2022-12-18T00:33:00.712Z,0.045
2022-12-18T00:34:00.690Z,0.045
2022-12-18T00:35:00.863Z,0.045
2022-12-18T00:36:00.686Z,0.045
2022-12-18T00:37:00.693Z,0.045
2022-12-18T00:38:00.715Z,0.045
2022-12-18T00:39:00.747Z,0.045
2022-12-18T00:40:00.721Z,0.045
2022-12-18T00:41:00.841Z,0.045
2022-12-18T00:42:00.871Z,0.045
2022-12-18T00:43:00.690Z,0.045
2022-12-18T00:44:00.743Z,0.045
2022-12-18T00:45:00.716Z,0.045
2022-12-18T00:46:00.775Z,0.045
2022-12-18T00:47:00.925Z,0.045
2022-12-18T00:48:00.712Z,0.045
2022-12-18T00:49:00.794Z,0.045
2022-12-18T00:50:00.682Z,0.045
2022-12-18T00:51:00.684Z,0.045
2022-12-18T00:52:00.732Z,0.045
2022-12-18T00:53:00.827Z,0.045
2022-12-18T00:54:00.733Z,0.045
2022-12-18T00:55:06.016Z,0.045
2022-12-18T00:56:00.744Z,0.045
2022-12-18T00:57:00.901Z,0.045
2022-12-18T00:58:00.776Z,0.045
2022-12-18T00:59:00.890Z,0.045
2022-12-18T01:00:00.825Z,0.045
2022-12-18T01:01:00.879Z,0.045
2022-12-18T01:02:00.964Z,0.045
2022-12-18T01:03:01.001Z,0.045
2022-12-18T01:04:00.689Z,0.045
2022-12-18T01:05:00.837Z,0.045
2022-12-18T01:06:00.711Z,0.045
2022-12-18T01:07:00.744Z,0.045
2022-12-18T01:08:00.747Z,0.045
2022-12-18T01:09:00.690Z,0.045
2022-12-18T01:10:00.723Z,0.045
2022-12-18T01:11:00.866Z,0.045
2022-12-18T01:12:00.801Z,0.045
2022-12-18T01:13:00.714Z,0.045
2022-12-18T01:14:00.682Z,0.045
2022-12-18T01:15:00.719Z,0.045
2022-12-18T01:16:00.756Z,0.045
2022-12-18T01:17:00.907Z,0.045
2022-12-18T01:18:00.714Z,0.045
2022-12-18T01:19:00.747Z,0.045
2022-12-18T01:20:00.720Z,0.045
2022-12-18T01:21:00.683Z,0.045
2022-12-18T01:22:00.746Z,0.045
2022-12-18T01:23:01.015Z,0.045
2022-12-18T01:24:00.713Z,0.045
2022-12-18T01:25:00.688Z,0.045
2022-12-18T01:26:00.708Z,0.045
2022-12-18T01:27:00.881Z,0.045
2022-12-18T01:28:00.792Z,0.045
2022-12-18T01:29:00.943Z,0.045
2022-12-18T01:30:00.777Z,0.045
2022-12-18T01:31:00.712Z,0.045
2022-12-18T01:32:00.803Z,0.045
2022-12-18T01:33:00.775Z,0.045
2022-12-18T01:34:00.789Z,0.045
2022-12-18T01:35:00.844Z,0.045
2022-12-18T01:36:00.818Z,0.045
2022-12-18T01:37:00.737Z,0.045
2022-12-18T01:38:00.746Z,0.045
2022-12-18T01:39:00.720Z,0.045
2022-12-18T01:40:00.715Z,0.045
2022-12-18T01:41:00.882Z,0.045
2022-12-18T01:42:00.886Z,0.045
2022-12-18T01:43:00.687Z,0.045
2022-12-18T01:44:00.757Z,0.045
2022-12-18T01:45:00.735Z,0.045
2022-12-18T01:46:00.758Z,0.045
2022-12-18T01:47:00.818Z,0.045
2022-12-18T01:48:00.715Z,0.045
2022-12-18T01:49:00.716Z,0.045
2022-12-18T01:50:00.741Z,0.045
2022-12-18T01:51:00.777Z,0.045
2022-12-18T01:52:00.763Z,0.045
2022-12-18T01:53:00.877Z,0.045
2022-12-18T01:54:00.778Z,0.045
2022-12-18T01:55:00.714Z,0.045
2022-12-18T01:56:00.717Z,0.045
2022-12-18T01:57:00.893Z,0.045
2022-12-18T01:58:00.723Z,0.045
2022-12-18T01:59:00.844Z,0.045
2022-12-18T02:00:00.688Z,0.045
2022-12-18T02:01:00.784Z,0.045
2022-12-18T02:02:00.990Z,0.045
2022-12-18T02:03:00.780Z,0.045
2022-12-18T02:04:00.744Z,0.045
2022-12-18T02:05:00.929Z,0.045
2022-12-18T02:06:00.765Z,0.045
2022-12-18T02:07:00.797Z,0.045
2022-12-18T02:08:00.694Z,0.045
2022-12-18T02:09:00.746Z,0.045
2022-12-18T02:10:00.816Z,0.045
2022-12-18T02:11:00.896Z,0.045
2022-12-18T02:12:00.832Z,0.045
2022-12-18T02:13:00.884Z,0.045
2022-12-18T02:14:00.755Z,0.045
2022-12-18T02:15:00.722Z,0.045
2022-12-18T02:16:00.715Z,0.045
2022-12-18T02:17:01.071Z,0.045
2022-12-18T02:18:00.756Z,0.045
2022-12-18T02:19:00.688Z,0.045
2022-12-18T02:20:00.745Z,0.045
2022-12-18T02:21:00.684Z,0.045
2022-12-18T02:22:00.721Z,0.045
2022-12-18T02:23:00.936Z,0.045
2022-12-18T02:24:00.747Z,0.045
2022-12-18T02:25:00.750Z,0.045
2022-12-18T02:26:00.692Z,0.045
2022-12-18T02:27:00.719Z,0.045
2022-12-18T02:28:00.866Z,0.045
2022-12-18T02:29:00.839Z,0.045
2022-12-18T02:30:00.717Z,0.045
2022-12-18T02:31:00.785Z,0.045
2022-12-18T02:32:00.714Z,0.045
2022-12-18T02:33:00.736Z,0.045
2022-12-18T02:34:00.743Z,0.045
2022-12-18T02:35:00.899Z,0.045
2022-12-18T02:36:00.698Z,0.045
2022-12-18T02:37:00.744Z,0.045
2022-12-18T02:38:00.750Z,0.045
2022-12-18T02:39:00.737Z,0.045
2022-12-18T02:40:00.725Z,0.045
2022-12-18T02:41:01.069Z,0.045
2022-12-18T02:42:00.724Z,0.045
2022-12-18T02:43:00.719Z,0.045
2022-12-18T02:44:00.908Z,0.045
2022-12-18T02:45:00.745Z,0.045
2022-12-18T02:46:00.852Z,0.045
2022-12-18T02:47:00.815Z,0.045
2022-12-18T02:48:00.683Z,0.045
2022-12-18T02:49:00.767Z,0.045
2022-12-18T02:50:00.786Z,0.045
2022-12-18T02:51:00.742Z,0.045
2022-12-18T02:52:00.761Z,0.045
2022-12-18T02:53:00.870Z,0.045
2022-12-18T02:54:00.749Z,0.045
2022-12-18T02:55:00.690Z,0.045
2022-12-18T02:56:00.747Z,0.045
2022-12-18T02:57:00.763Z,0.045
2022-12-18T02:58:00.726Z,0.045
2022-12-18T02:59:00.880Z,0.045
2022-12-18T03:00:00.740Z,0.045
2022-12-18T03:01:00.799Z,0.045
2022-12-18T03:02:00.898Z,0.045
2022-12-18T03:03:00.849Z,0.045
2022-12-18T03:04:00.750Z,0.045
2022-12-18T03:05:00.891Z,0.045
2022-12-18T03:06:00.721Z,0.045
2022-12-18T03:07:00.686Z,0.045
2022-12-18T03:08:00.739Z,0.045
2022-12-18T03:09:00.687Z,0.045
2022-12-18T03:10:00.735Z,0.045
2022-12-18T03:11:00.875Z,0.045
2022-12-18T03:12:00.741Z,0.045
2022-12-18T03:13:00.714Z,0.045
2022-12-18T03:14:00.804Z,0.045
2022-12-18T03:15:00.716Z,0.045
2022-12-18T03:16:00.693Z,0.045
2022-12-18T03:17:00.911Z,0.045
2022-12-18T03:18:00.729Z,0.045
2022-12-18T03:19:00.715Z,0.045
2022-12-18T03:20:00.816Z,0.045
2022-12-18T03:21:00.725Z,0.045
2022-12-18T03:22:00.721Z,0.045
2022-12-18T03:23:01.002Z,0.045
2022-12-18T03:24:00.717Z,0.045
2022-12-18T03:25:00.689Z,0.045
2022-12-18T03:26:05.842Z,0.045
2022-12-18T03:27:00.749Z,0.045
2022-12-18T03:28:00.687Z,0.045
2022-12-18T03:29:00.909Z,0.045
2022-12-18T03:30:00.797Z,0.045
2022-12-18T03:31:00.757Z,0.045
2022-12-18T03:32:00.699Z,0.045
2022-12-18T03:33:00.735Z,0.045
2022-12-18T03:34:00.690Z,0.045
2022-12-18T03:35:00.836Z,0.045
2022-12-18T03:36:00.714Z,0.045
2022-12-18T03:37:00.729Z,0.090
2022-12-18T03:38:00.745Z,0.090
2022-12-18T03:39:00.756Z,0.135
2022-12-18T03:40:00.703Z,0.135
2022-12-18T03:41:00.878Z,0.180
2022-12-18T03:42:00.747Z,0.180
2022-12-18T03:43:00.755Z,0.180
2022-12-18T03:44:00.735Z,0.225
2022-12-18T03:45:00.949Z,0.270
2022-12-18T03:46:00.879Z,0.315
2022-12-18T03:47:00.938Z,0.405
2022-12-18T03:48:00.761Z,0.450
2022-12-18T03:49:00.774Z,0.495
2022-12-18T03:50:00.759Z,0.585
2022-12-18T03:51:00.824Z,0.675
2022-12-18T03:52:00.854Z,0.765
2022-12-18T03:53:00.883Z,0.855
2022-12-18T03:54:00.795Z,1.080
2022-12-18T03:55:00.731Z,1.260
2022-12-18T03:56:00.723Z,1.440
2022-12-18T03:57:00.772Z,1.845
2022-12-18T03:58:00.697Z,2.205
2022-12-18T03:59:00.911Z,2.655
2022-12-18T04:00:00.746Z,3.330
2022-12-18T04:01:00.887Z,4.005
2022-12-18T04:02:00.967Z,5.085
2022-12-18T04:03:00.734Z,6.120
2022-12-18T04:04:00.711Z,7.425
2022-12-18T04:05:00.874Z,8.865
2022-12-18T04:06:00.752Z,10.755
2022-12-18T04:07:00.756Z,12.780
2022-12-18T04:08:00.715Z,15.480
2022-12-18T04:09:00.801Z,18.360
2022-12-18T04:10:00.762Z,21.150
2022-12-18T04:11:00.870Z,24.300
2022-12-18T04:12:00.717Z,26.100
2022-12-18T04:13:00.838Z,28.440
2022-12-18T04:14:02.731Z,31.500
2022-12-18T04:15:00.747Z,35.460
2022-12-18T04:16:00.990Z,39.600
2022-12-18T04:17:00.809Z,44.820
2022-12-18T04:18:00.750Z,49.680
2022-12-18T04:19:00.712Z,55.800
2022-12-18T04:20:00.714Z,64.080
2022-12-18T04:21:00.742Z,72.000
2022-12-18T04:22:00.694Z,79.200
2022-12-18T04:23:00.909Z,84.960
2022-12-18T04:24:00.719Z,92.160
2022-12-18T04:25:00.735Z,100.080
2022-12-18T04:26:00.717Z,106.560
2022-12-18T04:27:00.754Z,113.760
2022-12-18T04:28:00.718Z,121.680
2022-12-18T04:29:00.880Z,131.760
2022-12-18T04:30:00.761Z,133.200
2022-12-18T04:31:00.819Z,143.280
2022-12-18T04:32:00.760Z,160.560
2022-12-18T04:33:00.774Z,177.840
2022-12-18T04:34:00.777Z,182.160
2022-12-18T04:35:00.854Z,183.600
2022-12-18T04:36:00.774Z,192.960
2022-12-18T04:37:00.744Z,213.120
2022-12-18T04:38:00.772Z,227.520
2022-12-18T04:39:00.729Z,244.800
2022-12-18T04:40:00.815Z,247.680
2022-12-18T04:41:00.955Z,252.000
2022-12-18T04:42:00.688Z,266.400
2022-12-18T04:43:00.811Z,280.800
2022-12-18T04:44:00.782Z,303.840
2022-12-18T04:45:00.818Z,326.880
2022-12-18T04:46:00.899Z,341.280
2022-12-18T04:47:00.821Z,388.800
2022-12-18T04:48:00.743Z,417.600
2022-12-18T04:49:00.721Z,434.880
2022-12-18T04:50:00.764Z,463.680
2022-12-18T04:51:00.737Z,472.320
2022-12-18T04:52:00.720Z,495.360
2022-12-18T04:53:00.904Z,515.520
2022-12-18T04:54:00.716Z,544.320
2022-12-18T04:55:00.719Z,576.000
2022-12-18T04:56:00.741Z,610.560
2022-12-18T04:57:00.745Z,616.320
2022-12-18T04:58:00.731Z,610.560
2022-12-18T04:59:00.895Z,633.600
2022-12-18T05:00:00.765Z,627.840
2022-12-18T05:01:00.840Z,650.880
2022-12-18T05:02:00.859Z,613.440
2022-12-18T05:03:00.818Z,624.960
2022-12-18T05:04:00.743Z,650.880
2022-12-18T05:05:00.898Z,550.080
2022-12-18T05:06:00.702Z,527.040
2022-12-18T05:07:00.725Z,552.960
2022-12-18T05:08:00.799Z,584.640
2022-12-18T05:09:00.805Z,599.040
2022-12-18T05:10:00.792Z,607.680
2022-12-18T05:11:00.897Z,622.080
2022-12-18T05:12:00.732Z,653.760
2022-12-18T05:13:01.288Z,604.800
2022-12-18T05:14:00.821Z,630.720
2022-12-18T05:15:00.704Z,717.120
2022-12-18T05:16:01.210Z,777.600
2022-12-18T05:17:01.412Z,783.360
2022-12-18T05:18:00.802Z,748.800
2022-12-18T05:19:00.729Z,771.840
2022-12-18T05:20:00.686Z,806.400
2022-12-18T05:21:00.685Z,887.040
2022-12-18T05:22:00.701Z,898.560
2022-12-18T05:23:00.864Z,875.520
2022-12-18T05:24:00.687Z,852.480
2022-12-18T05:25:00.736Z,881.280
2022-12-18T05:26:00.716Z,904.320
2022-12-18T05:27:00.714Z,898.560
2022-12-18T05:28:00.715Z,938.880
2022-12-18T05:29:00.847Z,956.160
2022-12-18T05:30:00.720Z,1042.560
2022-12-18T05:31:00.899Z,1082.880
2022-12-18T05:32:00.744Z,1157.760
2022-12-18T05:33:00.725Z,1209.600
2022-12-18T05:34:00.749Z,1192.320
2022-12-18T05:35:00.825Z,1290.240
2022-12-18T05:36:00.700Z,1509.120
2022-12-18T05:37:00.738Z,2004.480
2022-12-18T05:38:00.759Z,2407.680
2022-12-18T05:39:00.685Z,2684.160
2022-12-18T05:40:00.758Z,2361.600
2022-12-18T05:41:00.974Z,2384.640
2022-12-18T05:42:00.764Z,2131.200
2022-12-18T05:43:00.694Z,2188.800
2022-12-18T05:44:00.688Z,2649.600
2022-12-18T05:45:00.754Z,2638.080
2022-12-18T05:46:01.041Z,3087.360
2022-12-18T05:47:01.021Z,3709.440
2022-12-18T05:48:00.790Z,5045.760
2022-12-18T05:49:00.808Z,6497.280
2022-12-18T05:50:00.829Z,5483.520
2022-12-18T05:51:00.696Z,4723.200
2022-12-18T05:52:00.763Z,5299.200
2022-12-18T05:53:00.967Z,3432.960
2022-12-18T05:54:00.755Z,2649.600
2022-12-18T05:55:00.688Z,2568.960
2022-12-18T05:56:00.715Z,2338.560
2022-12-18T05:57:00.746Z,2004.480
2022-12-18T05:58:00.765Z,1681.920
2022-12-18T05:59:00.928Z,1555.200
2022-12-18T06:00:00.721Z,1388.160
2022-12-18T06:01:00.844Z,1232.640
2022-12-18T06:02:00.857Z,1232.640
2022-12-18T06:03:00.841Z,1192.320
2022-12-18T06:04:00.794Z,1152.000
2022-12-18T06:05:00.907Z,1313.280
2022-12-18T06:06:00.825Z,1474.560
2022-12-18T06:07:00.745Z,1445.760
2022-12-18T06:08:00.860Z,1434.240
2022-12-18T06:09:00.746Z,1509.120
2022-12-18T06:10:00.823Z,1658.880
2022-12-18T06:11:01.004Z,1405.440
2022-12-18T06:12:00.689Z,1601.280
2022-12-18T06:13:00.705Z,1785.600
2022-12-18T06:14:00.823Z,1509.120
2022-12-18T06:15:00.701Z,1612.800
2022-12-18T06:16:00.998Z,1624.320
2022-12-18T06:17:00.931Z,1992.960
2022-12-18T06:18:00.732Z,2004.480
2022-12-18T06:19:00.824Z,2085.120
2022-12-18T06:20:00.743Z,2200.320
2022-12-18T06:21:00.897Z,2062.080
2022-12-18T06:22:00.785Z,1900.800
2022-12-18T06:23:01.072Z,1969.920
2022-12-18T06:24:00.746Z,1670.400
2022-12-18T06:25:00.704Z,1658.880
2022-12-18T06:26:00.793Z,1658.880
2022-12-18T06:27:00.721Z,1601.280
2022-12-18T06:28:00.768Z,1762.560
2022-12-18T06:29:00.920Z,1728.000
2022-12-18T06:30:00.721Z,1716.480
2022-12-18T06:31:00.894Z,1670.400
2022-12-18T06:32:00.767Z,1877.760
2022-12-18T06:33:00.754Z,1900.800
2022-12-18T06:34:00.768Z,2211.840
2022-12-18T06:35:00.986Z,2211.840
2022-12-18T06:36:01.292Z,1981.440
2022-12-18T06:37:00.784Z,1958.400
2022-12-18T06:38:00.727Z,1889.280
2022-12-18T06:39:00.768Z,1935.360
2022-12-18T06:40:00.830Z,1843.200
2022-12-18T06:41:01.006Z,1992.960
2022-12-18T06:42:00.805Z,2292.480
2022-12-18T06:43:00.715Z,1923.840
2022-12-18T06:44:00.867Z,1831.680
2022-12-18T06:45:00.727Z,1831.680
2022-12-18T06:46:01.113Z,1889.280
2022-12-18T06:47:00.883Z,1912.320
2022-12-18T06:48:00.902Z,1889.280
2022-12-18T06:49:00.855Z,1923.840
2022-12-18T06:50:00.973Z,1900.800
2022-12-18T06:51:00.833Z,1946.880
2022-12-18T06:52:00.807Z,1946.880
2022-12-18T06:53:01.179Z,1762.560
2022-12-18T06:54:01.179Z,2016.000
2022-12-18T06:55:01.003Z,1854.720
2022-12-18T06:56:05.105Z,2039.040
2022-12-18T06:57:01.034Z,2062.080
2022-12-18T06:58:00.835Z,2027.520
2022-12-18T06:59:00.917Z,1981.440
2022-12-18T07:00:00.863Z,2142.720
2022-12-18T07:01:00.914Z,2292.480
2022-12-18T07:02:00.825Z,2419.200
2022-12-18T07:03:00.785Z,2545.920
2022-12-18T07:04:00.743Z,2442.240
2022-12-18T07:05:02.017Z,2638.080
2022-12-18T07:06:00.719Z,2845.440
2022-12-18T07:07:00.751Z,2557.440
2022-12-18T07:08:00.740Z,2315.520
2022-12-18T07:09:01.761Z,2327.040
2022-12-18T07:10:00.720Z,2280.960
2022-12-18T07:11:00.877Z,2315.520
2022-12-18T07:12:00.773Z,2280.960
2022-12-18T07:13:00.772Z,2292.480
2022-12-18T07:14:00.749Z,2810.880
2022-12-18T07:15:00.762Z,2315.520
2022-12-18T07:16:00.882Z,2407.680
2022-12-18T07:17:00.861Z,2280.960
2022-12-18T07:18:00.693Z,2223.360
2022-12-18T07:19:00.741Z,2027.520
2022-12-18T07:20:00.717Z,2085.120
2022-12-18T07:21:00.699Z,2234.880
2022-12-18T07:22:00.721Z,2511.360
2022-12-18T07:23:00.825Z,2730.240
2022-12-18T07:24:00.714Z,2534.400
2022-12-18T07:25:00.793Z,2580.480
2022-12-18T07:26:00.720Z,2522.880
2022-12-18T07:27:00.821Z,2511.360
2022-12-18T07:28:00.805Z,2315.520
2022-12-18T07:29:00.920Z,2442.240
2022-12-18T07:30:00.884Z,2741.760
2022-12-18T07:31:00.892Z,3110.400
2022-12-18T07:32:02.087Z,3502.080
2022-12-18T07:33:00.728Z,3156.480
2022-12-18T07:34:00.730Z,3179.520
2022-12-18T07:35:00.933Z,3225.600
2022-12-18T07:36:00.746Z,3041.280
2022-12-18T07:37:00.723Z,3018.240
2022-12-18T07:38:00.762Z,3386.880
2022-12-18T07:39:00.723Z,3617.280
2022-12-18T07:40:00.736Z,3778.560
2022-12-18T07:41:00.892Z,4331.520
2022-12-18T07:42:00.714Z,4377.600
2022-12-18T07:43:00.745Z,4423.680
2022-12-18T07:44:00.721Z,4032.000
2022-12-18T07:45:00.720Z,3502.080
2022-12-18T07:46:00.800Z,2868.480
2022-12-18T07:47:00.869Z,2995.200
2022-12-18T07:48:00.877Z,3133.440
2022-12-18T07:49:00.722Z,3271.680
2022-12-18T07:50:00.720Z,3179.520
2022-12-18T07:51:00.718Z,3502.080
2022-12-18T07:52:00.683Z,4032.000
2022-12-18T07:53:00.875Z,3778.560
2022-12-18T07:54:00.724Z,4216.320
2022-12-18T07:55:00.711Z,4608.000
2022-12-18T07:56:26.082Z,5414.400
2022-12-18T07:57:00.719Z,4769.280
2022-12-18T07:58:01.253Z,4746.240
2022-12-18T07:59:00.946Z,4654.080
2022-12-18T08:00:00.728Z,4953.600
2022-12-18T08:01:00.899Z,4723.200
2022-12-18T08:02:00.871Z,4976.640
2022-12-18T08:03:01.001Z,5506.560
2022-12-18T08:04:00.941Z,5944.320
2022-12-18T08:05:00.960Z,6128.640
2022-12-18T08:06:00.720Z,6266.880
2022-12-18T08:07:00.719Z,5990.400
2022-12-18T08:08:00.761Z,6082.560
2022-12-18T08:09:00.749Z,5990.400
2022-12-18T08:10:00.738Z,6220.800
2022-12-18T08:11:00.898Z,6082.560
2022-12-18T08:12:00.694Z,5852.160
2022-12-18T08:13:04.944Z,5852.160
2022-12-18T08:14:00.751Z,5898.240
2022-12-18T08:15:00.824Z,5760.000
2022-12-18T08:16:00.859Z,5529.600
2022-12-18T08:17:00.967Z,6082.560
2022-12-18T08:18:00.765Z,5829.120
2022-12-18T08:19:01.010Z,5575.680
2022-12-18T08:20:00.698Z,5898.240
2022-12-18T08:21:00.958Z,5898.240
2022-12-18T08:22:00.849Z,5736.960
2022-12-18T08:23:01.085Z,7649.280
2022-12-18T08:24:00.720Z,12810.240
2022-12-18T08:25:00.759Z,18984.961
2022-12-18T08:26:00.753Z,19722.240
2022-12-18T08:27:28.457Z,19077.119
2022-12-18T08:28:00.723Z,19445.760
2022-12-18T08:29:00.964Z,20920.320
2022-12-18T08:30:00.779Z,21288.961
2022-12-18T08:31:00.749Z,21196.801
2022-12-18T08:32:00.822Z,20459.520
2022-12-18T08:33:00.704Z,20736.000
2022-12-18T08:34:00.894Z,20090.881
2022-12-18T08:35:00.883Z,20090.881
2022-12-18T08:36:00.757Z,20459.520
2022-12-18T08:37:00.738Z,21012.480
2022-12-18T08:38:00.714Z,19814.400
2022-12-18T08:39:00.984Z,18247.680
2022-12-18T08:40:00.784Z,14745.600
2022-12-18T08:41:01.012Z,15943.680
2022-12-18T08:42:04.155Z,14653.440
2022-12-18T08:43:00.756Z,15759.360
2022-12-18T08:44:00.804Z,16220.160
2022-12-18T08:45:00.921Z,16312.320
2022-12-18T08:46:00.802Z,12257.280
2022-12-18T08:47:00.923Z,14100.480
2022-12-18T08:48:00.734Z,16773.119
2022-12-18T08:49:00.868Z,14837.760
2022-12-18T08:50:00.790Z,11243.520
2022-12-18T08:51:00.763Z,11520.000
2022-12-18T08:52:00.783Z,7879.680
2022-12-18T08:53:00.963Z,6958.080
2022-12-18T08:54:00.722Z,6312.960
2022-12-18T08:55:01.135Z,7418.880
2022-12-18T08:56:01.122Z,5783.040
2022-12-18T08:57:00.967Z,6727.680
2022-12-18T08:58:01.154Z,5506.560
2022-12-18T08:59:01.161Z,5045.760
2022-12-18T09:00:01.018Z,5160.960
2022-12-18T09:01:00.911Z,6128.640
2022-12-18T09:02:01.299Z,7096.320
2022-12-18T09:03:01.137Z,5253.120
2022-12-18T09:04:01.174Z,5575.680
2022-12-18T09:05:01.104Z,6497.280
2022-12-18T09:06:00.774Z,8524.800
2022-12-18T09:07:00.737Z,8524.800
2022-12-18T09:08:00.729Z,11151.360
2022-12-18T09:09:00.724Z,8663.040
2022-12-18T09:10:00.747Z,7188.480
2022-12-18T09:11:00.896Z,6128.640
2022-12-18T09:12:00.751Z,6958.080
2022-12-18T09:13:00.849Z,6082.560
2022-12-18T09:14:00.698Z,9538.560
2022-12-18T09:15:00.814Z,9538.560
2022-12-18T09:16:00.842Z,8939.520
2022-12-18T09:17:00.975Z,7603.200
2022-12-18T09:18:00.741Z,6635.520
2022-12-18T09:19:01.026Z,8294.400
2022-12-18T09:20:00.708Z,8432.640
2022-12-18T09:21:00.804Z,13639.680
2022-12-18T09:22:00.758Z,10967.040
2022-12-18T09:23:00.929Z,15667.200
2022-12-18T09:24:00.713Z,18984.961
2022-12-18T09:25:00.804Z,13547.520
2022-12-18T09:26:00.708Z,12718.080
2022-12-18T09:27:00.703Z,20275.199
2022-12-18T09:28:00.878Z,22947.840
2022-12-18T09:29:00.944Z,24145.920
2022-12-18T09:30:00.809Z,22855.680
2022-12-18T09:31:00.857Z,22855.680
2022-12-18T09:32:00.701Z,22947.840
2022-12-18T09:33:00.797Z,23224.320
2022-12-18T09:34:00.926Z,23316.480
2022-12-18T09:35:00.838Z,24330.240
2022-12-18T09:36:00.830Z,23592.961
2022-12-18T09:37:00.914Z,24145.920
2022-12-18T09:38:00.805Z,23777.279
2022-12-18T09:39:04.965Z,23592.961
2022-12-18T09:40:00.812Z,23408.641
2022-12-18T09:41:00.854Z,22855.680
2022-12-18T09:42:00.776Z,23500.801
2022-12-18T09:43:00.715Z,23777.279
2022-12-18T09:44:00.702Z,24330.240
2022-12-18T09:45:00.778Z,22763.520
2022-12-18T09:46:00.828Z,23500.801
2022-12-18T09:47:00.859Z,23500.801
2022-12-18T09:48:00.740Z,23777.279
2022-12-18T09:49:00.869Z,23961.600
2022-12-18T09:50:00.700Z,23777.279
2022-12-18T09:51:00.699Z,24330.240
2022-12-18T09:52:00.771Z,24330.240
2022-12-18T09:53:01.120Z,23592.961
2022-12-18T09:54:00.714Z,24330.240
2022-12-18T09:55:00.849Z,24698.881
2022-12-18T09:56:00.879Z,23777.279
2022-12-18T09:57:00.985Z,24698.881
2022-12-18T09:58:00.746Z,25251.840
2022-12-18T09:59:00.933Z,25989.119
2022-12-18T10:00:00.772Z,28385.279
2022-12-18T10:01:00.701Z,29675.520
2022-12-18T10:02:00.865Z,32624.641
2022-12-18T10:03:00.876Z,35389.441
2022-12-18T10:04:00.980Z,37601.281
2022-12-18T10:05:00.863Z,39260.160
2022-12-18T10:06:00.740Z,40734.719
2022-12-18T10:07:05.662Z,42024.961
2022-12-18T10:08:00.778Z,43499.520
2022-12-18T10:09:00.713Z,43315.199
2022-12-18T10:10:00.686Z,43499.520
2022-12-18T10:11:00.844Z,42393.602
2022-12-18T10:12:00.816Z,41840.641
2022-12-18T10:13:04.537Z,40366.078
2022-12-18T10:14:00.723Z,38522.879
2022-12-18T10:15:00.732Z,37601.281
2022-12-18T10:16:00.823Z,35205.121
2022-12-18T10:17:00.914Z,32440.320
2022-12-18T10:18:00.832Z,29675.520
2022-12-18T10:19:01.026Z,27463.680
2022-12-18T10:20:00.887Z,25067.520
2022-12-18T10:21:00.735Z,23592.961
2022-12-18T10:22:00.794Z,22855.680
2022-12-18T10:23:01.106Z,21841.920
2022-12-18T10:24:00.716Z,21749.760
2022-12-18T10:25:00.776Z,21934.080
2022-12-18T10:26:00.850Z,21565.439
2022-12-18T10:27:00.701Z,21934.080
2022-12-18T10:28:00.795Z,21473.279
2022-12-18T10:29:05.527Z,21473.279
2022-12-18T10:30:00.737Z,21749.760
2022-12-18T10:31:00.923Z,21196.801
2022-12-18T10:32:00.685Z,20736.000
2022-12-18T10:33:00.792Z,20736.000
2022-12-18T10:34:00.975Z,20828.160
2022-12-18T10:35:01.231Z,20736.000
2022-12-18T10:36:00.715Z,20183.039
2022-12-18T10:37:00.768Z,20459.520
2022-12-18T10:38:00.747Z,19814.400
2022-12-18T10:39:00.717Z,19906.561
2022-12-18T10:40:00.728Z,19906.561
2022-12-18T10:41:00.883Z,20828.160
2022-12-18T10:42:00.748Z,23040.000
2022-12-18T10:43:00.711Z,25067.520
2022-12-18T10:44:00.702Z,27463.680
2022-12-18T10:45:00.812Z,30412.801
2022-12-18T10:46:00.820Z,30597.119
2022-12-18T10:47:00.882Z,31518.721
2022-12-18T10:48:00.859Z,33546.238
2022-12-18T10:49:01.178Z,34652.160
2022-12-18T10:50:00.712Z,36679.680
2022-12-18T10:51:10.854Z,38338.559
2022-12-18T10:52:00.799Z,38891.520
2022-12-18T10:53:01.083Z,35205.121
2022-12-18T10:54:00.765Z,34099.199
2022-12-18T10:55:00.821Z,38522.879
2022-12-18T10:56:00.767Z,36311.039
2022-12-18T10:59:00.933Z,34099.199
2022-12-18T11:00:00.722Z,34099.199
2022-12-18T11:01:00.757Z,32808.961
2022-12-18T11:02:00.954Z,31518.721
2022-12-18T11:03:00.949Z,28385.279
2022-12-18T11:04:02.583Z,21012.480
2022-12-18T11:05:01.017Z,18800.641
2022-12-18T11:06:00.709Z,22579.199
2022-12-18T11:07:00.743Z,16312.320
2022-12-18T11:08:01.075Z,8340.480
2022-12-18T11:09:00.743Z,10552.320
2022-12-18T11:10:00.822Z,9169.920
2022-12-18T11:11:01.160Z,6451.200
2022-12-18T11:12:00.858Z,4538.880
2022-12-18T11:13:00.830Z,4608.000
2022-12-18T11:14:00.815Z,4423.680
2022-12-18T11:15:00.809Z,4538.880
2022-12-18T11:16:00.910Z,4677.120
2022-12-18T11:17:25.309Z,4216.320
2022-12-18T11:18:00.750Z,4055.040
2022-12-18T11:19:00.762Z,3939.840
2022-12-18T11:20:00.887Z,3962.880
2022-12-18T11:21:00.775Z,3962.880
2022-12-18T11:22:00.773Z,3893.760
2022-12-18T11:23:00.884Z,3755.520
2022-12-18T11:24:00.727Z,3824.640
2022-12-18T11:25:33.383Z,3893.760
2022-12-18T11:26:00.754Z,3571.200
2022-12-18T11:27:00.742Z,3640.320
2022-12-18T11:28:00.851Z,3594.240
2022-12-18T11:29:01.111Z,3502.080
2022-12-18T11:30:00.717Z,3571.200
2022-12-18T11:31:00.740Z,3663.360
2022-12-18T11:32:00.722Z,3386.880
2022-12-18T11:33:00.821Z,3409.920
2022-12-18T11:34:27.321Z,3294.720
2022-12-18T11:35:01.420Z,3363.840
2022-12-18T11:36:00.856Z,3248.640
2022-12-18T11:37:01.148Z,3271.680
2022-12-18T11:38:00.795Z,3202.560
2022-12-18T11:39:00.971Z,3064.320
2022-12-18T11:40:00.852Z,2972.160
2022-12-18T11:41:01.337Z,2972.160
2022-12-18T11:42:01.104Z,2833.920
2022-12-18T11:43:01.024Z,3041.280
2022-12-18T11:44:00.784Z,3064.320
2022-12-18T11:45:00.998Z,2891.520
2022-12-18T11:46:01.058Z,3064.320
2022-12-18T11:47:01.425Z,2972.160
2022-12-18T11:48:00.850Z,2833.920
2022-12-18T11:49:01.019Z,2949.120
2022-12-18T11:50:01.387Z,2741.760
2022-12-18T11:51:00.853Z,2707.200
2022-12-18T11:52:00.727Z,2695.680
2022-12-18T11:53:05.810Z,2822.400
2022-12-18T11:54:01.058Z,2661.120
2022-12-18T11:55:00.821Z,2442.240
2022-12-18T11:56:00.818Z,2626.560
2022-12-18T11:57:00.929Z,2545.920
2022-12-18T11:58:00.849Z,2476.800
2022-12-18T11:59:00.936Z,2419.200
2022-12-18T12:00:00.766Z,2407.680
2022-12-18T12:01:00.780Z,2200.320
2022-12-18T12:02:00.916Z,2269.440
2022-12-18T12:03:00.818Z,2085.120
2022-12-18T12:04:00.994Z,1992.960
2022-12-18T12:05:01.024Z,1981.440
2022-12-18T12:06:00.918Z,1889.280
2022-12-18T12:07:03.340Z,1843.200
2022-12-18T12:08:00.793Z,1751.040